Time;durP1;ratioP1;P1;durP2;ratioP2;P2;SDS_P1;SDS_P2;PMS_P1;PMS_P2;Temp;Humidity;BMP_temperature;BMP_pressure;BME280_temperature;BME280_humidity;BME280_pressure;Samples;Min_cycle;Max_cycle;Signal;HPM_P1;HPM_P2
2023/06/26 00:02:20;;;;;;;8.90;8.20;;;21.40;1.00;;;;;;5139114;27;20482;-64
2023/06/26 00:04:47;;;;;;;8.93;8.23;;;21.40;1.00;;;;;;5139375;27;20494;-63
2023/06/26 00:07:15;;;;;;;9.43;8.03;;;21.40;1.00;;;;;;5139416;27;20887;-64
2023/06/26 00:09:44;;;;;;;11.93;9.00;;;21.40;1.00;;;;;;5138894;27;20921;-64
2023/06/26 00:12:11;;;;;;;9.43;8.53;;;21.40;1.00;;;;;;5139141;27;20563;-64
2023/06/26 00:14:38;;;;;;;10.33;8.10;;;21.30;1.00;;;;;;5139094;27;20491;-64
2023/06/26 00:17:06;;;;;;;9.47;8.57;;;21.40;1.00;;;;;;5138659;27;20919;-64
2023/06/26 00:19:33;;;;;;;8.60;7.97;;;21.40;1.00;;;;;;5138661;27;20462;-63
2023/06/26 00:22:00;;;;;;;10.07;9.17;;;21.50;1.00;;;;;;5138719;27;20462;-63
2023/06/26 00:24:27;;;;;;;9.33;8.37;;;21.50;1.00;;;;;;5139300;27;20460;-63
2023/06/26 00:26:56;;;;;;;8.40;7.67;;;21.40;1.00;;;;;;5138965;27;20494;-62
2023/06/26 00:29:23;;;;;;;9.10;8.40;;;21.50;1.00;;;;;;5138682;27;20883;-64
2023/06/26 00:31:50;;;;;;;9.70;8.87;;;21.60;1.00;;;;;;5138739;27;20915;-63
2023/06/26 00:34:17;;;;;;;9.00;8.10;;;21.70;1.00;;;;;;5138502;27;20577;-64
2023/06/26 00:36:45;;;;;;;8.37;7.67;;;21.70;1.00;;;;;;5139065;27;20557;-63
2023/06/26 00:39:12;;;;;;;9.53;8.73;;;21.60;1.00;;;;;;5139008;27;20508;-63
2023/06/26 00:41:39;;;;;;;9.80;8.77;;;21.60;1.00;;;;;;5138817;27;20549;-63
2023/06/26 00:44:08;;;;;;;8.93;8.13;;;21.40;1.00;;;;;;5138663;27;20455;-63
2023/06/26 00:46:36;;;;;;;11.23;9.17;;;21.30;1.00;;;;;;5138369;27;20463;-63
2023/06/26 00:49:04;;;;;;;8.80;7.90;;;21.30;1.00;;;;;;5138633;27;20508;-63
2023/06/26 00:51:32;;;;;;;8.80;8.10;;;21.20;1.00;;;;;;5138323;27;20903;-63
2023/06/26 00:53:59;;;;;;;9.70;8.83;;;21.10;1.00;;;;;;5138572;27;20858;-63
2023/06/26 00:56:28;;;;;;;9.67;8.77;;;21.10;1.00;;;;;;5138038;27;20482;-63
2023/06/26 00:58:55;;;;;;;8.50;7.80;;;21.10;19.40;;;;;;5138716;27;20487;-62
2023/06/26 01:01:25;;;;;;;8.93;8.23;;;21.00;99.90;;;;;;5138253;27;20482;-63
2023/06/26 01:03:53;;;;;;;9.97;9.17;;;20.90;1.00;;;;;;5138044;27;20459;-63
2023/06/26 01:06:23;;;;;;;9.10;8.37;;;20.90;99.90;;;;;;5138457;27;20461;-63
2023/06/26 01:08:51;;;;;;;9.60;8.80;;;20.90;99.90;;;;;;5138059;27;20494;-63
2023/06/26 01:11:19;;;;;;;9.30;8.47;;;20.90;99.90;;;;;;5138552;27;20455;-63
2023/06/26 01:13:46;;;;;;;8.83;8.13;;;20.80;1.00;;;;;;5137909;27;20462;-63
2023/06/26 01:16:15;;;;;;;9.70;8.67;;;20.80;1.00;;;;;;5138376;27;20493;-52
2023/06/26 01:18:45;;;;;;;11.07;10.07;;;20.80;1.00;;;;;;5138207;28;20507;-54
2023/06/26 01:21:14;;;;;;;9.43;8.53;;;20.60;1.00;;;;;;5138328;28;20454;-54
2023/06/26 01:23:50;;;;;;;9.60;8.80;;;20.60;1.00;;;;;;5138002;28;20486;-53
2023/06/26 01:26:21;;;;;;;9.00;8.20;;;20.50;99.90;;;;;;5138462;28;20891;-53
2023/06/26 01:28:50;;;;;;;8.70;7.90;;;20.50;1.00;;;;;;5138298;28;20494;-51
2023/06/26 01:31:17;;;;;;;8.70;7.90;;;20.40;1.00;;;;;;5138088;28;20769;-54
2023/06/26 01:33:46;;;;;;;10.10;9.20;;;20.30;1.00;;;;;;5138031;28;20454;-54
2023/06/26 01:36:14;;;;;;;10.00;9.00;;;20.40;1.00;;;;;;5137744;28;20586;-54
2023/06/26 01:38:41;;;;;;;9.00;8.20;;;20.30;1.00;;;;;;5137889;28;20823;-53
2023/06/26 01:41:08;;;;;;;9.10;8.20;;;20.30;1.00;;;;;;5117770;28;20550;-54
2023/06/26 01:43:44;;;;;;;9.33;8.53;;;20.30;1.00;;;;;;5116989;28;20561;-55
2023/06/26 01:46:16;;;;;;;10.93;9.90;;;20.20;1.00;;;;;;5117014;28;20892;-54
2023/06/26 01:48:51;;;;;;;9.73;8.73;;;20.20;1.00;;;;;;5117404;28;20563;-53
2023/06/26 01:51:21;;;;;;;10.33;9.43;;;20.20;1.00;;;;;;5117137;28;20463;-54
2023/06/26 01:53:54;;;;;;;9.97;9.17;;;20.20;1.00;;;;;;5117308;28;20562;-55
2023/06/26 01:56:24;;;;;;;9.37;8.67;;;20.30;1.00;;;;;;5117425;28;20578;-55
2023/06/26 01:58:54;;;;;;;9.20;8.40;;;20.20;1.00;;;;;;5117332;28;20951;-54
2023/06/26 02:01:22;;;;;;;12.10;8.60;;;20.20;1.00;;;;;;5116595;28;20490;-51
2023/06/26 02:03:49;;;;;;;9.80;9.00;;;20.10;1.00;;;;;;5117386;28;20798;-55
2023/06/26 02:06:17;;;;;;;9.27;8.40;;;20.10;1.00;;;;;;5117222;28;20935;-54
2023/06/26 02:08:44;;;;;;;9.17;8.37;;;19.90;1.00;;;;;;5117605;28;20463;-51
2023/06/26 02:11:11;;;;;;;9.43;8.63;;;19.90;1.00;;;;;;5117246;28;20828;-53
2023/06/26 02:13:38;;;;;;;10.37;9.37;;;19.90;1.00;;;;;;5117308;28;20489;-54
2023/06/26 02:16:07;;;;;;;9.20;8.40;;;19.90;1.00;;;;;;5116842;28;20581;-55
2023/06/26 02:18:34;;;;;;;8.87;8.10;;;19.90;1.00;;;;;;5117250;28;20462;-52
2023/06/26 02:21:04;;;;;;;10.50;9.60;;;19.90;1.00;;;;;;5117693;28;20572;-54
2023/06/26 02:23:31;;;;;;;8.97;8.17;;;19.80;1.00;;;;;;5120387;28;20562;-53
2023/06/26 02:25:58;;;;;;;10.40;9.30;;;19.80;1.00;;;;;;5120645;28;20835;-54
2023/06/26 02:28:25;;;;;;;9.90;8.90;;;19.90;1.00;;;;;;5120753;28;20837;-54
2023/06/26 02:30:53;;;;;;;10.10;9.20;;;19.80;1.00;;;;;;5120793;28;20757;-54
2023/06/26 02:33:21;;;;;;;9.00;8.30;;;19.90;1.00;;;;;;5120565;28;20513;-51
2023/06/26 02:35:50;;;;;;;9.30;8.50;;;19.80;1.00;;;;;;5120668;28;20936;-54
2023/06/26 02:38:17;;;;;;;10.03;8.37;;;19.80;1.00;;;;;;5120566;28;20532;-54
2023/06/26 02:40:44;;;;;;;9.33;8.43;;;19.80;1.00;;;;;;5120485;28;20466;-54
2023/06/26 02:43:11;;;;;;;9.53;8.73;;;19.90;1.00;;;;;;5120508;28;20546;-53
2023/06/26 02:45:38;;;;;;;9.60;8.80;;;19.80;1.00;;;;;;5120041;28;20491;-54
2023/06/26 02:48:06;;;;;;;9.60;8.47;;;19.70;1.00;;;;;;5120124;28;20554;-54
2023/06/26 02:50:35;;;;;;;9.63;8.50;;;19.70;1.00;;;;;;5120640;28;20799;-55
2023/06/26 02:53:02;;;;;;;10.07;9.07;;;19.60;1.00;;;;;;5120347;28;20552;-49
2023/06/26 02:55:29;;;;;;;8.90;8.10;;;19.60;1.00;;;;;;5119940;28;20487;-51
2023/06/26 02:57:56;;;;;;;10.03;9.23;;;19.70;1.00;;;;;;5120095;28;20459;-52
2023/06/26 03:00:24;;;;;;;9.00;8.20;;;19.70;1.00;;;;;;5119844;28;20582;-54
2023/06/26 03:02:51;;;;;;;8.57;7.87;;;19.60;1.00;;;;;;5120226;28;20498;-54
2023/06/26 03:05:18;;;;;;;9.80;8.90;;;19.60;1.00;;;;;;5119755;28;20487;-54
2023/06/26 03:07:47;;;;;;;9.90;9.07;;;19.60;1.00;;;;;;5120028;28;20888;-52
2023/06/26 03:10:14;;;;;;;9.50;8.60;;;19.50;1.00;;;;;;5119718;28;20495;-53
2023/06/26 03:12:42;;;;;;;9.33;8.43;;;19.40;1.00;;;;;;5120015;28;20459;-51
2023/06/26 03:15:11;;;;;;;10.30;9.30;;;19.30;1.00;;;;;;5119829;28;20583;-54
2023/06/26 03:17:38;;;;;;;10.20;9.40;;;19.40;1.00;;;;;;5119902;28;20858;-54
2023/06/26 03:20:07;;;;;;;10.17;9.27;;;19.30;1.00;;;;;;5119511;28;20550;-51
2023/06/26 03:22:34;;;;;;;10.10;9.00;;;19.30;1.00;;;;;;5119839;28;20464;-54
2023/06/26 03:25:03;;;;;;;9.40;8.60;;;19.30;1.00;;;;;;5119952;28;20456;-55
2023/06/26 03:27:30;;;;;;;9.90;9.00;;;19.30;1.00;;;;;;5119638;28;20499;-54
2023/06/26 03:29:57;;;;;;;9.20;8.30;;;19.20;1.00;;;;;;5119538;28;20567;-53
2023/06/26 03:32:24;;;;;;;8.57;7.77;;;19.30;1.00;;;;;;5119448;28;20491;-54
2023/06/26 03:34:52;;;;;;;9.90;8.90;;;19.20;1.00;;;;;;5118883;28;20460;-54
2023/06/26 03:37:20;;;;;;;10.10;9.20;;;19.20;1.00;;;;;;5118864;28;20464;-53
2023/06/26 03:39:47;;;;;;;9.90;8.90;;;19.20;1.00;;;;;;5119198;28;20463;-53
2023/06/26 03:42:16;;;;;;;9.43;8.53;;;19.20;1.00;;;;;;5119283;28;20546;-54
2023/06/26 03:44:43;;;;;;;9.70;8.67;;;19.20;1.00;;;;;;5119543;28;20758;-52
2023/06/26 03:47:10;;;;;;;9.80;8.90;;;19.10;1.00;;;;;;5119286;28;20827;-53
2023/06/26 03:49:37;;;;;;;10.73;9.73;;;19.00;1.00;;;;;;5118995;28;20459;-52
2023/06/26 03:52:05;;;;;;;9.67;8.77;;;19.00;1.00;;;;;;5119477;28;20470;-54
2023/06/26 03:54:33;;;;;;;10.00;9.10;;;19.00;1.00;;;;;;5119270;28;20553;-54
2023/06/26 03:57:01;;;;;;;10.53;9.47;;;19.00;1.00;;;;;;5118911;28;20491;-54
2023/06/26 03:59:29;;;;;;;10.30;9.43;;;19.00;1.00;;;;;;5119032;28;20851;-54
2023/06/26 04:01:57;;;;;;;10.33;9.43;;;19.00;1.00;;;;;;5133827;27;20506;-54
2023/06/26 04:04:24;;;;;;;10.47;9.40;;;19.00;1.00;;;;;;5138870;27;20466;-56
2023/06/26 04:06:51;;;;;;;10.80;9.80;;;19.00;1.00;;;;;;5138998;27;20454;-52
2023/06/26 04:09:19;;;;;;;9.20;8.40;;;19.10;1.00;;;;;;5138383;27;20458;-54
2023/06/26 04:11:46;;;;;;;10.23;9.33;;;19.10;1.00;;;;;;5139416;27;20886;-53
2023/06/26 04:14:13;;;;;;;11.40;10.40;;;19.20;1.00;;;;;;5139298;27;20511;-54
2023/06/26 04:16:42;;;;;;;12.13;8.63;;;19.20;1.00;;;;;;5139450;27;20533;-53
2023/06/26 04:19:10;;;;;;;9.80;8.70;;;19.40;1.00;;;;;;5139189;27;20458;-55
2023/06/26 04:21:37;;;;;;;10.37;8.80;;;19.70;1.00;;;;;;5138984;27;20466;-55
2023/06/26 04:24:05;;;;;;;9.73;8.77;;;19.80;1.00;;;;;;5138786;27;20469;-54
2023/06/26 04:26:32;;;;;;;8.80;8.00;;;20.00;1.00;;;;;;5138204;27;20455;-54
2023/06/26 04:29:00;;;;;;;10.27;9.30;;;20.40;1.00;;;;;;5137634;27;20481;-53
2023/06/26 04:31:27;;;;;;;10.43;9.43;;;20.50;1.00;;;;;;5137169;27;20494;-56
2023/06/26 04:33:57;;;;;;;10.63;9.53;;;20.70;99.90;;;;;;5137124;27;20876;-55
2023/06/26 04:36:28;;;;;;;10.00;8.57;;;20.80;99.90;;;;;;5137226;27;20573;-55
2023/06/26 04:38:56;;;;;;;10.00;9.00;;;20.90;1.00;;;;;;5137193;27;20476;-53
2023/06/26 04:41:23;;;;;;;10.90;9.80;;;21.00;1.00;;;;;;5137666;27;20743;-55
2023/06/26 04:43:50;;;;;;;10.23;9.27;;;21.00;1.00;;;;;;5138043;27;20826;-55
2023/06/26 04:46:18;;;;;;;10.93;9.93;;;21.00;1.00;;;;;;5138595;27;20454;-55
2023/06/26 04:48:45;;;;;;;13.43;10.97;;;21.10;1.00;;;;;;5138764;27;20887;-55
2023/06/26 04:51:13;;;;;;;10.63;9.63;;;21.10;1.00;;;;;;5138963;27;20508;-53
2023/06/26 04:53:41;;;;;;;10.77;9.77;;;21.10;1.00;;;;;;5138455;27;20458;-55
2023/06/26 04:56:09;;;;;;;10.27;9.27;;;21.10;1.00;;;;;;5138197;27;20582;-55
2023/06/26 04:58:36;;;;;;;11.27;10.27;;;21.10;1.00;;;;;;5138761;27;20508;-54
2023/06/26 05:01:06;;;;;;;12.30;9.83;;;21.10;1.00;;;;;;5138391;27;20803;-51
2023/06/26 05:03:35;;;;;;;10.20;9.30;;;21.10;1.00;;;;;;5137201;27;20437;-57
2023/06/26 05:06:03;;;;;;;11.17;10.07;;;21.00;1.00;;;;;;5134955;27;20946;-57
2023/06/26 05:08:32;;;;;;;10.77;9.77;;;21.10;1.00;;;;;;5137597;27;20482;-56
2023/06/26 05:10:59;;;;;;;11.50;9.20;;;21.10;1.00;;;;;;5137431;27;20504;-56
2023/06/26 05:13:27;;;;;;;11.77;10.40;;;21.20;1.00;;;;;;5137192;27;20935;-53
2023/06/26 05:15:55;;;;;;;10.70;9.70;;;21.20;1.00;;;;;;5137009;27;20779;-57
2023/06/26 05:18:22;;;;;;;11.33;10.17;;;21.20;1.00;;;;;;5138407;27;20899;-55
2023/06/26 05:20:50;;;;;;;11.03;9.77;;;21.10;1.00;;;;;;5138337;28;20599;-55
2023/06/26 05:23:17;;;;;;;11.20;10.10;;;21.20;1.00;;;;;;5137928;27;20871;-54
2023/06/26 05:25:47;;;;;;;11.90;10.13;;;21.20;1.00;;;;;;5137893;27;20459;-55
2023/06/26 05:28:15;;;;;;;12.07;10.20;;;21.20;1.00;;;;;;5138353;27;20756;-55
2023/06/26 05:30:42;;;;;;;10.53;9.53;;;21.20;1.00;;;;;;5137965;28;20505;-55
2023/06/26 05:33:13;;;;;;;10.90;9.90;;;21.10;1.00;;;;;;5138196;28;20454;-55
2023/06/26 05:35:40;;;;;;;9.40;8.50;;;21.20;1.00;;;;;;5138085;28;20491;-51
2023/06/26 05:38:08;;;;;;;10.17;9.17;;;21.20;1.00;;;;;;5138120;28;20561;-61
2023/06/26 05:40:36;;;;;;;11.50;9.50;;;21.20;1.00;;;;;;5138388;27;20459;-58
2023/06/26 05:43:05;;;;;;;9.90;8.63;;;21.30;1.00;;;;;;5138125;27;20469;-59
2023/06/26 05:45:33;;;;;;;10.10;9.20;;;21.60;1.00;;;;;;5137096;27;20458;-59
2023/06/26 05:48:00;;;;;;;11.83;10.63;;;21.80;1.00;;;;;;5137752;27;20493;-58
2023/06/26 05:50:29;;;;;;;9.50;8.50;;;21.90;1.00;;;;;;5137939;27;20911;-59
2023/06/26 05:52:56;;;;;;;9.77;8.97;;;22.20;1.00;;;;;;5138215;27;20561;-60
2023/06/26 05:55:24;;;;;;;11.03;9.77;;;22.30;1.00;;;;;;5138377;27;20461;-60
2023/06/26 05:57:53;;;;;;;9.80;8.80;;;22.20;1.00;;;;;;5141723;27;20456;-58
2023/06/26 06:00:28;;;;;;;10.13;9.13;;;22.00;1.00;;;;;;5141713;27;20872;-57
2023/06/26 06:02:56;;;;;;;9.33;8.50;;;21.90;1.00;;;;;;5141977;27;20878;-58
2023/06/26 06:05:23;;;;;;;9.63;8.80;;;21.90;1.00;;;;;;5141609;27;20494;-59
2023/06/26 06:07:51;;;;;;;10.70;9.40;;;21.80;1.00;;;;;;5141950;27;20958;-58
2023/06/26 06:10:18;;;;;;;10.10;8.53;;;21.70;1.00;;;;;;5141714;27;20812;-59
2023/06/26 06:12:46;;;;;;;9.13;8.23;;;21.80;1.00;;;;;;5141729;27;20561;-59
2023/06/26 06:15:13;;;;;;;8.07;7.20;;;21.80;1.00;;;;;;5140607;27;20890;-57
2023/06/26 06:17:41;;;;;;;8.80;8.00;;;22.10;1.00;;;;;;5156149;27;20517;-59
2023/06/26 06:20:10;;;;;;;8.47;7.67;;;22.20;1.00;;;;;;5162207;27;20458;-59
2023/06/26 06:22:37;;;;;;;9.10;7.70;;;22.20;1.00;;;;;;5162459;27;20504;-60
2023/06/26 06:25:05;;;;;;;8.60;7.53;;;21.90;1.00;;;;;;5162535;27;20802;-57
2023/06/26 06:27:32;;;;;;;8.20;7.40;;;21.70;1.00;;;;;;5161081;27;20489;-60
2023/06/26 06:29:59;;;;;;;9.20;8.30;;;21.50;1.00;;;;;;5161617;27;20878;-58
2023/06/26 06:32:26;;;;;;;10.17;7.90;;;21.30;1.00;;;;;;5161646;27;20453;-57
2023/06/26 06:34:55;;;;;;;9.20;7.20;;;21.30;1.00;;;;;;5161684;27;20461;-57
2023/06/26 06:37:22;;;;;;;9.40;7.30;;;21.40;1.00;;;;;;5161555;27;20580;-59
2023/06/26 06:39:49;;;;;;;8.40;7.43;;;21.80;1.00;;;;;;5161200;27;20556;-58
2023/06/26 06:42:17;;;;;;;9.13;7.37;;;22.30;1.00;;;;;;5161438;27;20500;-58
2023/06/26 06:44:44;;;;;;;8.50;6.37;;;22.60;1.00;;;;;;5161807;27;20504;-59
2023/06/26 06:47:11;;;;;;;11.03;7.77;;;22.80;1.00;;;;;;5158848;27;20887;-59
2023/06/26 06:49:38;;;;;;;9.20;8.20;;;23.10;1.00;;;;;;5160968;27;20453;-58
2023/06/26 06:52:07;;;;;;;8.30;6.80;;;23.10;1.00;;;;;;5161410;27;20449;-57
2023/06/26 06:54:52;;;;;;;9.27;7.40;;;22.80;1.00;;;;;;5153286;27;20846;-57
2023/06/26 06:57:20;;;;;;;11.27;8.00;;;23.20;1.00;;;;;;5139738;27;20494;-58
2023/06/26 06:59:48;;;;;;;7.07;6.37;;;23.40;1.00;;;;;;5143348;27;20458;-58
2023/06/26 07:02:16;;;;;;;6.80;6.10;;;23.60;1.00;;;;;;5135548;27;20499;-58
2023/06/26 07:04:43;;;;;;;9.77;6.40;;;24.10;1.00;;;;;;5119779;28;20462;-60
2023/06/26 07:07:14;;;;;;;8.20;7.00;;;24.00;1.00;;;;;;5119133;28;20504;-55
2023/06/26 07:09:41;;;;;;;10.13;7.63;;;23.80;1.00;;;;;;5119707;28;20553;-58
2023/06/26 07:12:09;;;;;;;8.70;6.77;;;23.20;1.00;;;;;;5118711;28;20483;-59
2023/06/26 07:14:36;;;;;;;9.57;7.30;;;22.90;1.00;;;;;;5118983;28;20459;-61
2023/06/26 07:17:04;;;;;;;9.63;7.27;;;22.70;1.00;;;;;;5140040;27;20870;-59
2023/06/26 07:19:31;;;;;;;9.60;8.30;;;23.10;1.00;;;;;;5140046;27;20553;-60
2023/06/26 07:21:59;;;;;;;10.63;8.00;;;23.10;1.00;;;;;;5139749;27;20458;-59
2023/06/26 07:24:27;;;;;;;9.50;6.60;;;23.20;1.00;;;;;;5139990;27;20837;-58
2023/06/26 07:26:55;;;;;;;8.77;7.87;;;23.40;1.00;;;;;;5139888;27;20451;-61
2023/06/26 07:29:22;;;;;;;9.97;7.97;;;23.10;1.00;;;;;;5138998;27;20462;-59
2023/06/26 07:31:50;;;;;;;8.83;7.40;;;23.40;1.00;;;;;;5139273;27;20538;-58
2023/06/26 07:34:17;;;;;;;9.03;8.10;;;23.60;1.00;;;;;;5138151;27;20477;-59
2023/06/26 07:36:44;;;;;;;11.33;8.03;;;23.40;1.00;;;;;;5137702;27;20585;-58
2023/06/26 07:39:12;;;;;;;9.57;8.57;;;23.60;1.00;;;;;;5138277;27;20475;-59
2023/06/26 07:41:41;;;;;;;8.30;7.00;;;23.60;1.00;;;;;;5138932;27;20455;-60
2023/06/26 07:44:08;;;;;;;9.27;8.37;;;23.70;1.00;;;;;;5136970;27;20725;-60
2023/06/26 07:46:35;;;;;;;9.37;7.43;;;24.00;1.00;;;;;;5139199;27;20541;-60
2023/06/26 07:49:03;;;;;;;12.03;8.30;;;23.80;1.00;;;;;;5139370;27;20446;-58
2023/06/26 07:51:30;;;;;;;12.93;8.73;;;23.90;1.00;;;;;;5138561;27;20486;-58
2023/06/26 07:53:57;;;;;;;11.93;8.03;;;24.30;1.00;;;;;;5138828;27;20918;-57
2023/06/26 07:56:25;;;;;;;8.13;7.37;;;24.50;1.00;;;;;;5139137;27;20543;-58
2023/06/26 07:58:54;;;;;;;10.87;8.50;;;24.60;1.00;;;;;;5139379;27;20465;-60
2023/06/26 08:01:21;;;;;;;9.83;8.10;;;24.70;1.00;;;;;;5136961;27;20851;-60
2023/06/26 08:03:49;;;;;;;9.50;8.70;;;24.90;1.00;;;;;;5139306;27;20467;-59
2023/06/26 08:06:16;;;;;;;8.83;7.93;;;25.30;1.00;;;;;;5135548;27;20504;-60
2023/06/26 08:08:44;;;;;;;8.83;7.83;;;24.90;1.00;;;;;;5138045;27;20542;-61
2023/06/26 08:11:11;;;;;;;11.17;8.20;;;24.80;1.00;;;;;;5136625;27;20488;-63
2023/06/26 08:13:39;;;;;;;8.57;7.70;;;24.80;1.00;;;;;;5134273;27;20876;-60
2023/06/26 08:16:08;;;;;;;8.67;7.60;;;24.30;1.00;;;;;;5140320;27;20515;-59
2023/06/26 08:18:35;;;;;;;12.60;8.10;;;24.00;1.00;;;;;;5114758;28;20778;-59
2023/06/26 08:21:03;;;;;;;10.20;8.60;;;23.80;99.90;;;;;;5119907;27;20489;-56
2023/06/26 08:23:30;;;;;;;9.00;8.10;;;23.70;1.00;;;;;;5156665;27;20552;-60
2023/06/26 08:25:59;;;;;;;11.30;8.33;;;23.80;1.00;;;;;;5155012;27;20544;-57
2023/06/26 08:28:26;;;;;;;14.27;8.67;;;23.70;1.00;;;;;;5156022;27;20435;-58
2023/06/26 08:30:54;;;;;;;9.90;7.40;;;24.00;1.00;;;;;;5136356;27;21064;-58
2023/06/26 08:33:23;;;;;;;10.13;8.47;;;24.50;1.00;;;;;;5135454;27;20490;-57
2023/06/26 08:35:52;;;;;;;9.90;8.87;;;24.00;99.90;;;;;;5134684;27;20774;-59
2023/06/26 08:38:21;;;;;;;12.10;9.10;;;23.50;99.90;;;;;;5120133;27;20975;-61
2023/06/26 08:40:48;;;;;;;11.80;8.83;;;23.60;99.90;;;;;;5114382;28;20490;-59
2023/06/26 08:43:15;;;;;;;9.60;8.77;;;23.80;99.90;;;;;;5115000;28;21160;-59
2023/06/26 08:45:44;;;;;;;9.63;8.63;;;24.00;99.90;;;;;;5126578;27;20791;-60
2023/06/26 08:48:12;;;;;;;10.83;9.00;;;24.60;99.90;;;;;;5135626;27;20457;-60
2023/06/26 08:50:42;;;;;;;9.90;8.90;;;24.70;99.90;;;;;;5135402;27;20894;-60
2023/06/26 08:53:19;;;;;;;11.77;9.13;;;24.90;99.90;;;;;;5137085;27;20482;-63
2023/06/26 08:55:50;;;;;;;14.40;11.17;;;24.90;99.90;;;;;;5133187;27;20769;-58
2023/06/26 08:58:17;;;;;;;11.33;8.43;;;25.00;99.90;;;;;;5127311;27;20569;-60
2023/06/26 09:00:45;;;;;;;12.40;8.87;;;24.50;99.90;;;;;;5133350;27;20993;-58
2023/06/26 09:03:14;;;;;;;9.40;8.30;;;24.30;99.90;;;;;;5137126;27;20490;-58
2023/06/26 09:05:43;;;;;;;10.20;8.50;;;24.50;99.90;;;;;;5137148;27;20868;-58
2023/06/26 09:08:11;;;;;;;10.43;8.40;;;25.00;99.90;;;;;;5137865;27;20868;-59
2023/06/26 09:10:38;;;;;;;10.43;7.67;;;24.80;99.90;;;;;;5138268;27;20490;-57
2023/06/26 09:13:07;;;;;;;10.67;8.37;;;24.00;99.90;;;;;;5138408;27;20458;-60
2023/06/26 09:15:39;;;;;;;14.27;9.93;;;23.90;99.90;;;;;;5135687;27;20463;-59
2023/06/26 09:18:07;;;;;;;10.20;8.80;;;23.80;99.90;;;;;;5135917;27;20486;-59
2023/06/26 09:20:35;;;;;;;10.60;8.53;;;24.30;99.90;;;;;;5135180;27;20558;-58
2023/06/26 09:23:05;;;;;;;9.83;8.60;;;24.90;99.90;;;;;;5137943;28;20570;-60
2023/06/26 09:25:32;;;;;;;11.30;8.50;;;25.40;1.00;;;;;;5137592;28;20484;-53
2023/06/26 09:28:00;;;;;;;15.10;9.33;;;25.10;99.90;;;;;;5138220;28;20486;-54
2023/06/26 09:30:28;;;;;;;12.33;8.63;;;24.60;99.90;;;;;;5139143;27;20458;-58
2023/06/26 09:32:55;;;;;;;12.50;8.77;;;24.10;99.90;;;;;;5142515;27;20459;-55
2023/06/26 09:35:23;;;;;;;12.43;8.20;;;24.40;99.90;;;;;;5141909;27;20458;-59
2023/06/26 09:37:50;;;;;;;10.53;8.47;;;24.20;99.90;;;;;;5142081;27;20490;-52
2023/06/26 09:40:19;;;;;;;10.90;8.40;;;24.40;99.90;;;;;;5142620;27;20481;-59
2023/06/26 09:42:47;;;;;;;12.10;8.53;;;24.50;99.90;;;;;;5139468;27;21116;-59
2023/06/26 09:45:21;;;;;;;11.20;8.37;;;24.70;99.90;;;;;;5141633;27;20477;-60
2023/06/26 09:47:48;;;;;;;11.47;7.60;;;24.90;99.90;;;;;;5139971;27;20557;-60
2023/06/26 09:50:27;;;;;;;9.90;7.90;;;25.20;99.90;;;;;;5139121;27;20470;-62
2023/06/26 09:52:54;;;;;;;8.27;6.27;;;25.50;99.90;;;;;;5139478;27;20465;-60
2023/06/26 09:55:23;;;;;;;12.47;7.80;;;26.20;1.00;;;;;;5140169;27;20458;-59
2023/06/26 09:57:51;;;;;;;9.20;7.07;;;26.60;1.00;;;;;;5139884;27;20493;-59
2023/06/26 10:00:20;;;;;;;12.97;6.67;;;26.40;1.00;;;;;;5141380;27;20485;-64
2023/06/26 10:02:47;;;;;;;9.83;6.93;;;26.80;1.00;;;;;;5144106;27;20482;-65
2023/06/26 10:05:15;;;;;;;7.97;6.27;;;26.90;1.00;;;;;;5143854;27;20450;-66
2023/06/26 10:07:43;;;;;;;8.30;7.00;;;26.30;1.00;;;;;;5145239;27;20533;-65
2023/06/26 10:10:11;;;;;;;8.00;6.90;;;26.20;1.00;;;;;;5144637;27;20744;-66
2023/06/26 10:12:40;;;;;;;9.27;6.00;;;26.40;1.00;;;;;;5141817;27;20495;-67
2023/06/26 10:15:12;;;;;;;8.87;6.23;;;26.40;1.00;;;;;;5143823;27;20454;-66
2023/06/26 10:17:42;;;;;;;7.67;6.00;;;26.60;32.40;;;;;;5141004;27;20919;-67
2023/06/26 10:20:11;;;;;;;5.93;5.10;;;27.10;99.90;;;;;;5144967;27;20462;-68
2023/06/26 10:22:43;;;;;;;8.63;6.03;;;26.90;39.90;;;;;;5145147;27;20453;-66
2023/06/26 10:25:13;;;;;;;5.57;4.90;;;26.90;99.90;;;;;;5142110;27;20493;-64
2023/06/26 10:27:47;;;;;;;7.60;5.40;;;27.00;99.90;;;;;;5141595;27;20499;-65
2023/06/26 10:30:17;;;;;;;6.43;5.23;;;26.00;47.10;;;;;;5141273;27;20527;-63
2023/06/26 10:32:46;;;;;;;7.23;5.07;;;25.90;99.90;;;;;;5141795;27;20537;-64
2023/06/26 10:35:15;;;;;;;6.67;5.40;;;26.20;86.40;;;;;;5143448;27;20489;-64
2023/06/26 10:37:44;;;;;;;8.50;5.10;;;27.10;1.00;;;;;;5143526;27;20497;-63
2023/06/26 10:40:11;;;;;;;9.27;6.03;;;27.20;1.00;;;;;;5141740;27;20481;-62
2023/06/26 10:42:42;;;;;;;9.23;5.60;;;27.90;1.00;;;;;;5140663;27;20767;-63
2023/06/26 10:45:17;;;;;;;5.77;5.20;;;27.80;1.00;;;;;;5141317;27;20459;-62
2023/06/26 10:47:47;;;;;;;9.57;5.50;;;27.70;99.90;;;;;;5144494;27;20475;-66
2023/06/26 10:50:20;;;;;;;6.93;5.13;;;27.80;43.40;;;;;;5143622;27;20506;-64
2023/06/26 10:53:07;;;;;;;6.73;4.30;;;28.20;99.90;;;;;;5143687;27;20970;-64
2023/06/26 10:55:35;;;;;;;7.60;4.70;;;28.20;27.50;;;;;;5144913;27;20450;-57
2023/06/26 10:58:04;;;;;;;6.00;4.57;;;28.30;1.00;;;;;;5144537;27;20483;-62
2023/06/26 11:00:31;;;;;;;5.93;4.70;;;28.60;1.00;;;;;;5146046;27;20793;-63
2023/06/26 11:03:00;;;;;;;5.53;4.93;;;28.60;99.90;;;;;;5147541;27;20472;-64
2023/06/26 11:05:29;;;;;;;6.00;4.23;;;28.50;91.80;;;;;;5140058;27;20466;-63
2023/06/26 11:08:07;;;;;;;7.73;4.70;;;28.00;1.00;;;;;;5140467;27;20814;-63
2023/06/26 11:10:52;;;;;;;5.80;4.50;;;27.90;1.00;;;;;;5142573;27;20458;-63
2023/06/26 11:13:21;;;;;;;7.67;4.30;;;27.80;99.90;;;;;;5143958;27;20454;-64
2023/06/26 11:15:51;;;;;;;6.90;4.10;;;28.10;99.90;;;;;;5143448;27;20470;-64
2023/06/26 11:18:18;;;;;;;6.10;4.03;;;28.30;99.90;;;;;;5144687;27;20514;-63
2023/06/26 11:20:46;;;;;;;5.27;4.73;;;28.10;99.90;;;;;;5143410;27;20441;-64
2023/06/26 11:23:14;;;;;;;5.47;4.27;;;29.00;99.90;;;;;;5141583;27;20465;-62
2023/06/26 11:25:42;;;;;;;6.23;4.53;;;27.60;99.90;;;;;;5146448;27;20965;-62
2023/06/26 11:28:12;;;;;;;5.57;4.10;;;27.50;99.90;;;;;;5145469;27;20504;-62
2023/06/26 11:30:41;;;;;;;7.23;3.80;;;28.30;99.90;;;;;;5140861;27;20605;-64
2023/06/26 11:33:10;;;;;;;5.73;4.40;;;28.20;99.90;;;;;;5141089;27;20469;-63
2023/06/26 11:35:38;;;;;;;6.13;4.13;;;28.20;99.90;;;;;;5141609;27;20487;-67
2023/06/26 11:38:06;;;;;;;9.10;4.97;;;27.90;99.90;;;;;;5136298;27;20489;-63
2023/06/26 11:40:35;;;;;;;4.23;3.83;;;28.20;1.00;;;;;;5139144;27;20455;-61
2023/06/26 11:43:03;;;;;;;6.40;4.00;;;27.30;1.00;;;;;;5139503;27;20515;-62
2023/06/26 11:45:31;;;;;;;5.57;4.60;;;27.70;1.00;;;;;;5134773;27;20927;-64
2023/06/26 11:48:01;;;;;;;5.87;5.00;;;26.90;1.00;;;;;;5138986;27;20459;-62
2023/06/26 11:50:29;;;;;;;6.30;3.73;;;26.90;1.00;;;;;;5143888;27;20502;-62
2023/06/26 11:52:57;;;;;;;7.60;4.80;;;26.90;99.90;;;;;;5144013;27;20454;-61
2023/06/26 11:55:25;;;;;;;5.67;3.50;;;27.20;99.90;;;;;;5145736;27;20517;-61
2023/06/26 11:57:55;;;;;;;5.53;4.03;;;27.60;1.00;;;;;;5148900;27;20490;-64
2023/06/26 12:00:23;;;;;;;6.90;4.27;;;28.10;1.00;;;;;;5142678;27;20554;-63
2023/06/26 12:02:52;;;;;;;5.30;3.57;;;27.60;99.90;;;;;;5142384;27;20462;-61
2023/06/26 12:05:22;;;;;;;5.03;4.03;;;26.40;1.00;;;;;;5143379;27;20512;-63
2023/06/26 12:07:51;;;;;;;4.50;3.80;;;26.60;1.00;;;;;;5125036;27;20885;-62
2023/06/26 12:10:19;;;;;;;3.70;3.23;;;26.60;1.00;;;;;;5142958;27;20469;-61
2023/06/26 12:12:47;;;;;;;5.77;3.30;;;26.80;99.90;;;;;;5139405;27;20488;-61
2023/06/26 12:15:17;;;;;;;6.00;3.10;;;26.50;99.90;;;;;;5143275;27;20461;-62
2023/06/26 12:17:44;;;;;;;5.23;3.50;;;27.40;99.90;;;;;;5137070;27;20517;-66
2023/06/26 12:20:23;;;;;;;4.60;3.73;;;27.70;1.00;;;;;;5139455;27;20772;-59
2023/06/26 12:22:50;;;;;;;3.63;3.27;;;26.50;1.00;;;;;;5138078;27;20514;-64
2023/06/26 12:25:24;;;;;;;3.13;2.83;;;25.90;1.00;;;;;;5140453;27;20492;-62
2023/06/26 12:27:52;;;;;;;4.10;3.07;;;25.80;1.00;;;;;;5143384;27;20552;-62
2023/06/26 12:30:19;;;;;;;3.40;3.10;;;26.30;1.00;;;;;;5137515;27;20586;-64
2023/06/26 12:32:47;;;;;;;3.90;3.60;;;27.10;1.00;;;;;;5137686;27;20486;-61
2023/06/26 12:35:15;;;;;;;4.17;3.07;;;27.00;1.00;;;;;;5138506;27;20469;-64
2023/06/26 12:37:45;;;;;;;9.47;3.30;;;27.40;1.00;;;;;;5138926;27;20785;-64
2023/06/26 12:40:21;;;;;;;4.20;3.80;;;27.40;99.90;;;;;;5138188;27;20467;-65
2023/06/26 12:42:49;;;;;;;3.40;2.70;;;26.50;99.90;;;;;;5129965;27;20442;-64
2023/06/26 12:45:17;;;;;;;5.27;3.40;;;26.30;99.90;;;;;;5124324;27;20462;-64
2023/06/26 12:47:44;;;;;;;4.70;2.30;;;26.10;99.90;;;;;;5140013;27;20433;-61
2023/06/26 12:50:13;;;;;;;3.77;2.93;;;26.30;99.90;;;;;;5140000;27;20469;-64
2023/06/26 12:52:41;;;;;;;4.80;2.90;;;26.50;99.90;;;;;;5129752;27;20459;-62
2023/06/26 12:55:10;;;;;;;4.70;2.97;;;26.30;99.90;;;;;;5124550;28;20875;-61
2023/06/26 12:57:38;;;;;;;3.63;3.00;;;26.30;99.90;;;;;;5121994;28;20452;-63